Time;durP1;ratioP1;P1;durP2;ratioP2;P2;SDS_P1;SDS_P2;PMS_P1;PMS_P2;Temp;Humidity;BMP_temperature;BMP_pressure;BME280_temperature;BME280_humidity;BME280_pressure;Samples;Min_cycle;Max_cycle;Signal;HPM_P1;HPM_P2
2021/11/16 00:02:09;;;;;;;66.60;38.58;;;;;;;7.13;72.47;95782.78;1674821;84;21000;-61
2021/11/16 00:04:36;;;;;;;43.63;25.97;;;;;;;7.15;72.37;95789.40;1672135;84;21078;-60
2021/11/16 00:07:05;;;;;;;47.03;30.75;;;;;;;7.26;71.93;95779.75;1664166;85;21124;-60
2021/11/16 00:09:33;;;;;;;42.85;25.92;;;;;;;7.37;71.45;95782.61;1663435;84;21148;-60
2021/11/16 00:11:59;;;;;;;74.97;44.67;;;;;;;7.45;70.89;95786.08;1663863;84;21683;-60
2021/11/16 00:14:29;;;;;;;66.65;40.20;;;;;;;7.46;71.04;95778.84;1655503;85;21126;-61
2021/11/16 00:16:56;;;;;;;73.25;45.75;;;;;;;7.51;70.94;95775.67;1668452;85;21568;-59
2021/11/16 00:19:22;;;;;;;68.10;39.33;;;;;;;7.53;70.76;95773.31;1661431;85;21071;-60
2021/11/16 00:21:50;;;;;;;91.72;50.15;;;;;;;7.54;70.59;95772.13;1597700;87;21240;-60
2021/11/16 00:24:25;;;;;;;71.42;44.98;;;;;;;7.46;70.67;95776.69;1670415;83;21050;-59
2021/11/16 00:26:48;;;;;;;68.80;41.70;;;;;;;7.38;71.19;95762.87;1667326;83;21066;-60
2021/11/16 00:29:14;;;;;;;80.80;48.52;;;;;;;7.44;71.19;95766.73;1678003;83;20996;-60
2021/11/16 00:31:41;;;;;;;77.92;43.28;;;;;;;7.50;71.00;95763.77;1673512;83;21109;-61
2021/11/16 00:34:08;;;;;;;54.08;30.92;;;;;;;7.48;70.87;95757.32;1700011;83;21852;-61
2021/11/16 00:36:34;;;;;;;64.50;36.45;;;;;;;7.49;70.97;95758.88;1703611;83;21063;-60
2021/11/16 00:39:01;;;;;;;65.65;35.92;;;;;;;7.54;70.70;95763.15;1691633;83;20992;-60
2021/11/16 00:41:27;;;;;;;107.97;57.30;;;;;;;7.56;70.56;95761.55;1684831;83;21590;-58
2021/11/16 00:43:54;;;;;;;110.15;55.80;;;;;;;7.50;70.63;95767.27;1685551;83;21026;-60
2021/11/16 00:46:20;;;;;;;108.12;55.25;;;;;;;7.42;70.58;95767.15;1691923;82;21138;-61
2021/11/16 00:48:47;;;;;;;94.80;51.13;;;;;;;7.37;70.90;95767.55;1723058;82;21073;-60
2021/11/16 00:51:13;;;;;;;112.52;58.60;;;;;;;7.39;70.88;95768.53;1725579;82;21026;-61
2021/11/16 00:53:41;;;;;;;147.02;89.28;;;;;;;7.33;71.07;95772.28;1731041;82;21385;-60
2021/11/16 00:56:09;;;;;;;101.22;56.75;;;;;;;7.30;71.28;95768.22;1687499;82;21035;-60
2021/11/16 00:58:35;;;;;;;83.03;46.88;;;;;;;7.32;71.05;95771.33;1722849;82;21148;-60
2021/11/16 01:01:02;;;;;;;99.80;53.33;;;;;;;7.28;71.01;95769.97;1731242;82;21101;-60
2021/11/16 01:03:30;;;;;;;93.47;51.15;;;;;;;7.19;70.86;95769.63;1720863;82;21100;-59
2021/11/16 01:05:57;;;;;;;83.33;43.58;;;;;;;7.07;71.32;95768.55;1723504;82;21105;-59
2021/11/16 01:08:23;;;;;;;77.03;42.60;;;;;;;7.03;71.42;95766.43;1668391;82;21050;-60
2021/11/16 01:10:51;;;;;;;74.90;39.88;;;;;;;6.95;71.57;95770.36;1682661;82;21090;-59
2021/11/16 01:13:20;;;;;;;76.07;42.78;;;;;;;6.86;71.86;95769.43;1694385;83;22175;-62
2021/11/16 01:15:48;;;;;;;69.65;37.73;;;;;;;6.86;72.26;95764.56;1692821;83;21072;-61
2021/11/16 01:18:16;;;;;;;54.60;32.90;;;;;;;6.95;72.02;95771.16;1692919;83;21077;-59
2021/11/16 01:20:45;;;;;;;42.93;27.32;;;;;;;6.89;71.91;95764.53;1687569;83;21006;-59
2021/11/16 01:23:12;;;;;;;42.53;27.02;;;;;;;6.83;71.84;95766.70;1680743;83;21161;-59
2021/11/16 01:25:39;;;;;;;43.30;27.52;;;;;;;6.77;72.03;95763.63;1701303;83;21009;-60
2021/11/16 01:28:10;;;;;;;54.42;32.25;;;;;;;6.81;72.05;95769.85;1682151;84;21032;-59
2021/11/16 01:30:36;;;;;;;62.67;34.50;;;;;;;6.85;72.06;95768.48;1701889;84;21307;-59
2021/11/16 01:35:32;;;;;;;58.58;34.20;;;;;;;6.95;71.76;95771.16;1701417;83;21101;-59
2021/11/16 01:37:59;;;;;;;77.08;43.45;;;;;;;7.00;71.58;95767.20;1702131;84;20952;-60
2021/11/16 01:40:25;;;;;;;54.55;34.50;;;;;;;7.04;71.66;95763.88;1686396;84;21564;-60
2021/11/16 01:42:52;;;;;;;51.80;32.10;;;;;;;7.13;71.29;95759.53;1686716;84;21068;-61
2021/11/16 01:45:20;;;;;;;48.63;29.82;;;;;;;7.13;70.82;95762.27;1698791;83;21086;-61
2021/11/16 01:47:47;;;;;;;45.50;28.83;;;;;;;7.05;70.84;95763.47;1678704;83;21202;-60
2021/11/16 01:50:15;;;;;;;48.55;29.27;;;;;;;6.99;70.88;95765.65;1675750;84;21022;-60
2021/11/16 01:52:42;;;;;;;49.25;27.60;;;;;;;6.98;70.98;95759.98;1665548;84;21771;-59
2021/11/16 01:55:10;;;;;;;49.10;28.75;;;;;;;7.01;71.04;95757.24;1664483;84;21227;-61
2021/11/16 01:57:37;;;;;;;44.80;24.27;;;;;;;7.10;70.93;95756.20;1661109;84;21015;-61
2021/11/16 02:00:12;;;;;;;43.73;26.02;;;;;;;7.18;70.58;95754.39;1660936;85;22198;-60
2021/11/16 02:02:40;;;;;;;40.73;22.90;;;;;;;7.21;70.24;95765.92;1661609;84;21050;-61
2021/11/16 02:05:08;;;;;;;43.42;25.75;;;;;;;7.22;70.14;95766.69;1658505;84;21074;-60
2021/11/16 02:07:36;;;;;;;48.05;27.62;;;;;;;7.21;69.97;95764.55;1661361;84;21010;-60
2021/11/16 02:10:04;;;;;;;42.95;25.90;;;;;;;7.22;70.04;95759.27;1696388;82;21392;-60
2021/11/16 02:12:31;;;;;;;39.30;22.32;;;;;;;7.24;69.77;95755.54;1726813;82;21167;-59
2021/11/16 02:14:57;;;;;;;46.77;26.48;;;;;;;7.24;69.37;95756.91;1716440;82;21282;-58
2021/11/16 02:17:24;;;;;;;46.83;25.05;;;;;;;7.22;69.43;95757.91;1688735;82;21455;-60
2021/11/16 02:19:50;;;;;;;43.02;24.07;;;;;;;7.23;69.32;95753.19;1726754;82;21038;-60
2021/11/16 02:22:17;;;;;;;56.02;31.80;;;;;;;7.26;69.30;95751.81;1717937;82;21048;-57
2021/11/16 02:24:43;;;;;;;52.58;28.67;;;;;;;7.32;69.15;95751.56;1673142;84;21135;-60
2021/11/16 02:27:10;;;;;;;50.48;24.52;;;;;;;7.30;69.20;95747.08;1690554;84;20953;-60
2021/11/16 02:29:36;;;;;;;31.85;18.92;;;;;;;7.32;69.28;95757.03;1688510;83;21091;-60
2021/11/16 02:32:04;;;;;;;34.63;20.55;;;;;;;7.36;68.93;95753.68;1702375;84;21095;-61
2021/11/16 02:34:31;;;;;;;30.48;19.55;;;;;;;7.38;68.55;95749.95;1686399;84;21055;-60
2021/11/16 02:36:57;;;;;;;26.75;17.92;;;;;;;7.38;68.32;95747.21;1694323;84;23329;-59
2021/11/16 02:39:23;;;;;;;22.22;16.27;;;;;;;7.36;68.26;95752.92;1699883;84;21017;-61
2021/11/16 02:41:53;;;;;;;27.52;19.15;;;;;;;7.34;68.02;95751.94;1702825;84;21092;-60
2021/11/16 02:44:22;;;;;;;32.63;23.40;;;;;;;7.33;68.06;95757.83;1701766;84;21077;-61
2021/11/16 02:46:49;;;;;;;38.45;24.65;;;;;;;7.31;68.02;95755.48;1696932;83;21077;-59
2021/11/16 02:49:18;;;;;;;53.48;30.57;;;;;;;7.28;68.32;95753.55;1679244;84;21180;-59
2021/11/16 02:51:46;;;;;;;40.43;24.72;;;;;;;7.34;67.96;95754.67;1683572;84;21549;-59
2021/11/16 02:54:15;;;;;;;37.90;23.83;;;;;;;7.31;67.68;95754.11;1683537;85;21624;-58
2021/11/16 02:56:42;;;;;;;31.17;21.68;;;;;;;7.19;67.82;95757.91;1649219;85;20996;-61
2021/11/16 02:59:09;;;;;;;26.10;16.57;;;;;;;7.15;68.21;95751.70;1635984;86;21018;-61
2021/11/16 03:01:38;;;;;;;24.98;16.82;;;;;;;7.19;68.06;95755.18;1640539;86;21115;-60
2021/11/16 03:04:04;;;;;;;18.70;13.55;;;;;;;7.22;67.81;95755.16;1669112;85;21046;-60
2021/11/16 03:06:31;;;;;;;19.20;13.93;;;;;;;7.25;67.62;95751.62;1651981;84;21086;-59
2021/11/16 03:08:58;;;;;;;26.93;17.62;;;;;;;7.27;67.59;95754.73;1692021;83;20989;-60
2021/11/16 03:11:25;;;;;;;27.32;16.97;;;;;;;7.28;67.63;95752.19;1691691;83;21002;-60
2021/11/16 03:13:53;;;;;;;28.30;22.82;;;;;;;7.34;67.61;95741.59;1686182;83;21113;-60
2021/11/16 03:16:21;;;;;;;21.48;16.77;;;;;;;7.41;67.27;95738.80;1663841;83;21065;-59
2021/11/16 03:18:54;;;;;;;23.70;15.95;;;;;;;7.44;66.94;95736.04;1668607;83;21177;-59
2021/11/16 03:21:23;;;;;;;20.23;14.73;;;;;;;7.46;66.73;95739.73;1674532;83;21030;-60
2021/11/16 03:23:51;;;;;;;20.52;14.00;;;;;;;7.41;66.64;95734.11;1671032;84;21078;-60
2021/11/16 03:26:19;;;;;;;21.40;14.75;;;;;;;7.37;66.67;95734.70;1648298;86;21129;-59
2021/11/16 03:28:50;;;;;;;18.90;14.43;;;;;;;7.28;66.60;95741.23;1672605;84;21041;-60
2021/11/16 03:31:20;;;;;;;20.48;14.55;;;;;;;7.16;66.83;95743.06;1655978;84;21062;-61
2021/11/16 03:33:49;;;;;;;17.42;13.93;;;;;;;7.10;67.08;95745.25;1664752;85;21042;-61
2021/11/16 03:36:17;;;;;;;19.73;13.72;;;;;;;7.02;67.11;95741.59;1665345;84;21045;-62
2021/11/16 03:38:44;;;;;;;19.65;14.07;;;;;;;6.89;67.42;95739.14;1668738;84;21829;-60
2021/11/16 03:41:11;;;;;;;20.10;15.23;;;;;;;6.90;67.78;95740.70;1667191;85;21090;-60
2021/11/16 03:43:39;;;;;;;21.30;14.30;;;;;;;7.01;67.78;95745.51;1674218;85;21019;-61
2021/11/16 03:46:06;;;;;;;21.25;15.38;;;;;;;7.13;67.42;95744.48;1664865;84;21004;-60
2021/11/16 03:48:33;;;;;;;23.27;16.48;;;;;;;7.20;67.07;95742.48;1672864;84;21078;-61
2021/11/16 03:51:00;;;;;;;24.95;16.62;;;;;;;7.22;67.08;95744.80;1665860;84;21160;-59
2021/11/16 03:53:28;;;;;;;22.20;15.75;;;;;;;7.21;67.01;95747.34;1653457;85;21437;-61
2021/11/16 03:55:55;;;;;;;19.25;14.85;;;;;;;7.18;66.80;95746.17;1659733;85;21714;-60
2021/11/16 03:58:23;;;;;;;17.07;12.98;;;;;;;7.07;67.03;95741.19;1650542;84;21149;-61
2021/11/16 04:00:56;;;;;;;19.90;14.75;;;;;;;7.01;67.24;95742.77;1713247;82;21062;-61
2021/11/16 04:03:24;;;;;;;19.62;15.25;;;;;;;6.99;67.37;95738.29;1723891;82;21206;-61
2021/11/16 04:05:52;;;;;;;21.45;14.33;;;;;;;6.92;67.47;95740.47;1728055;82;21495;-60
2021/11/16 04:08:19;;;;;;;19.67;13.75;;;;;;;6.91;67.59;95741.66;1703605;82;21066;-61
2021/11/16 04:10:47;;;;;;;22.30;14.73;;;;;;;6.97;67.48;95746.91;1702963;82;21095;-61
2021/11/16 04:13:13;;;;;;;23.42;16.77;;;;;;;7.03;67.21;95737.70;1730704;82;21016;-59
2021/11/16 04:15:40;;;;;;;28.32;17.02;;;;;;;7.03;67.28;95749.41;1719010;82;21221;-62
2021/11/16 04:18:08;;;;;;;48.55;19.52;;;;;;;7.04;67.21;95742.00;1717983;82;21522;-61
2021/11/16 04:20:39;;;;;;;33.45;18.25;;;;;;;7.01;67.21;95734.56;1697654;82;21027;-60
2021/11/16 04:23:09;;;;;;;26.70;17.73;;;;;;;6.95;67.32;95734.80;1712632;82;21104;-60
2021/11/16 04:25:38;;;;;;;38.67;21.70;;;;;;;6.90;67.50;95731.89;1675798;85;21066;-61
2021/11/16 04:28:06;;;;;;;30.02;17.67;;;;;;;6.92;67.61;95734.24;1668004;84;21162;-60
2021/11/16 04:30:32;;;;;;;25.23;18.05;;;;;;;6.94;67.33;95737.35;1680425;84;21062;-62
2021/11/16 04:32:59;;;;;;;28.92;16.07;;;;;;;6.96;67.06;95741.83;1650692;86;20976;-61
2021/11/16 04:35:26;;;;;;;23.30;14.98;;;;;;;6.92;66.95;95739.71;1679710;82;21054;-58
2021/11/16 04:37:56;;;;;;;21.35;15.80;;;;;;;6.85;67.01;95735.66;1732299;82;21023;-61
2021/11/16 04:40:33;;;;;;;21.65;14.05;;;;;;;6.77;67.11;95740.95;1706197;82;21942;-61
2021/11/16 04:43:04;;;;;;;22.15;15.55;;;;;;;6.73;67.34;95738.23;1723214;82;21093;-61
2021/11/16 04:45:29;;;;;;;21.68;15.83;;;;;;;6.72;67.32;95733.94;1723752;82;21006;-60
2021/11/16 04:48:00;;;;;;;20.50;14.80;;;;;;;6.75;67.43;95738.64;1723529;82;21109;-61
2021/11/16 04:50:33;;;;;;;31.02;21.23;;;;;;;6.84;67.00;95730.77;1723358;82;20995;-61
2021/11/16 04:53:52;;;;;;;21.60;16.85;;;;;;;6.88;66.46;95725.28;1724665;82;21468;-61
2021/11/16 05:03:17;;;;;;;19.42;15.05;;;;;;;7.05;65.50;95718.33;1678211;83;21137;-61
2021/11/16 05:05:44;;;;;;;15.13;12.85;;;;;;;7.06;65.28;95721.25;1700706;83;21056;-61
2021/11/16 05:08:11;;;;;;;13.40;11.70;;;;;;;7.06;65.16;95718.52;1707435;83;20969;-59
2021/11/16 05:10:38;;;;;;;16.32;12.68;;;;;;;7.07;65.02;95726.14;1690689;83;21001;-60
2021/11/16 05:13:05;;;;;;;14.23;12.20;;;;;;;7.01;65.00;95730.46;1674045;83;21577;-61
2021/11/16 05:15:34;;;;;;;15.70;13.75;;;;;;;6.96;65.00;95728.16;1677844;84;21113;-61
2021/11/16 05:18:00;;;;;;;16.55;14.47;;;;;;;6.96;65.05;95726.79;1685569;84;21167;-60
2021/11/16 05:20:26;;;;;;;16.02;14.43;;;;;;;6.95;65.02;95727.39;1646795;86;21026;-59
2021/11/16 05:22:54;;;;;;;22.90;16.40;;;;;;;6.91;65.14;95719.77;1635655;86;21590;-61
2021/11/16 05:25:21;;;;;;;17.40;15.65;;;;;;;6.92;65.11;95719.20;1628365;86;22265;-62
2021/11/16 05:27:48;;;;;;;21.05;15.88;;;;;;;6.90;64.98;95723.69;1619502;87;21127;-62
2021/11/16 05:30:15;;;;;;;19.48;16.23;;;;;;;6.90;64.96;95733.86;1621486;87;21101;-61
2021/11/16 05:32:41;;;;;;;23.75;21.17;;;;;;;6.88;64.88;95733.48;1625178;87;20972;-61
2021/11/16 05:35:10;;;;;;;24.57;19.85;;;;;;;6.83;64.96;95733.88;1619050;87;21072;-62
2021/11/16 05:37:37;;;;;;;23.30;19.32;;;;;;;6.78;65.10;95730.20;1623614;87;21097;-66
2021/11/16 05:40:04;;;;;;;37.13;21.33;;;;;;;6.74;65.10;95730.82;1635140;87;21179;-63
2021/11/16 05:42:32;;;;;;;43.20;27.55;;;;;;;6.66;65.24;95729.31;1629024;87;21052;-63
2021/11/16 05:45:00;;;;;;;29.80;20.75;;;;;;;6.59;65.46;95736.16;1633226;87;20973;-63
2021/11/16 05:47:27;;;;;;;20.85;18.73;;;;;;;6.53;65.57;95733.66;1626671;87;21056;-61
2021/11/16 05:49:53;;;;;;;22.25;17.00;;;;;;;6.47;65.65;95740.69;1618894;86;21068;-61
2021/11/16 05:52:20;;;;;;;27.27;22.10;;;;;;;6.36;65.85;95739.97;1680179;84;21048;-61
2021/11/16 05:54:48;;;;;;;25.70;20.43;;;;;;;6.29;66.28;95739.97;1691217;82;21140;-64
2021/11/16 05:57:15;;;;;;;26.23;20.27;;;;;;;6.30;66.37;95739.59;1700841;82;21021;-62
2021/11/16 05:59:42;;;;;;;19.48;16.30;;;;;;;6.27;66.33;95743.69;1657700;83;20992;-63
2021/11/16 06:02:10;;;;;;;25.30;19.40;;;;;;;6.18;66.52;95748.20;1704998;82;21605;-62
2021/11/16 06:04:37;;;;;;;30.15;27.00;;;;;;;6.17;66.71;95744.52;1719141;82;21127;-63
2021/11/16 06:07:05;;;;;;;23.20;18.10;;;;;;;6.20;66.76;95751.34;1717331;83;21134;-64
2021/11/16 06:09:32;;;;;;;12.85;11.55;;;;;;;6.20;66.64;95751.92;1680333;84;21089;-61
2021/11/16 06:12:00;;;;;;;13.08;11.73;;;;;;;6.16;66.83;95747.05;1688735;82;21070;-62
2021/11/16 06:14:28;;;;;;;19.65;15.72;;;;;;;6.21;66.81;95753.47;1690754;82;21113;-71
2021/11/16 06:16:54;;;;;;;15.70;13.35;;;;;;;6.23;66.77;95756.59;1714569;82;21300;-70
2021/11/16 06:19:25;;;;;;;13.22;11.90;;;;;;;6.32;66.43;95755.60;1673259;83;20996;-61
2021/11/16 06:21:53;;;;;;;14.07;11.45;;;;;;;6.36;66.28;95750.89;1685245;82;21032;-64
2021/11/16 06:24:19;;;;;;;13.85;10.95;;;;;;;6.38;66.17;95749.91;1708939;82;21040;-71
2021/11/16 06:26:47;;;;;;;19.20;13.72;;;;;;;6.39;66.02;95748.16;1713076;83;21063;-74
2021/11/16 06:29:13;;;;;;;19.40;14.18;;;;;;;6.39;65.88;95752.26;1693017;83;21119;-69
2021/11/16 06:31:41;;;;;;;21.02;12.88;;;;;;;6.35;66.01;95750.70;1678154;83;21162;-69
2021/11/16 06:34:09;;;;;;;16.60;13.00;;;;;;;6.39;66.02;95753.63;1689093;83;21066;-72
2021/11/16 06:36:40;;;;;;;15.55;12.73;;;;;;;6.43;65.74;95749.49;1673667;84;21016;-65
2021/11/16 06:39:13;;;;;;;15.23;11.97;;;;;;;6.46;65.66;95747.33;1672852;84;21027;-71
2021/11/16 06:41:39;;;;;;;13.78;12.35;;;;;;;6.49;65.53;95752.03;1673990;82;21562;-63
2021/11/16 06:44:08;;;;;;;15.63;12.45;;;;;;;6.50;65.27;95754.35;1654509;84;23329;-70
2021/11/16 06:46:35;;;;;;;20.97;15.32;;;;;;;6.48;65.31;95752.61;1626767;84;21770;-70
2021/11/16 06:49:03;;;;;;;25.15;17.27;;;;;;;6.49;65.29;95748.70;1661426;82;20986;-62
2021/11/16 06:51:36;;;;;;;22.60;15.95;;;;;;;6.47;65.19;95748.89;1674418;81;21777;-61
2021/11/16 06:53:59;;;;;;;33.80;19.92;;;;;;;6.43;65.25;95750.86;1682885;82;21128;-64
2021/11/16 06:56:25;;;;;;;34.65;20.48;;;;;;;6.36;65.45;95748.16;1651216;82;21118;-59
2021/11/16 06:58:52;;;;;;;30.72;20.10;;;;;;;6.32;65.37;95736.47;1651439;82;21093;-60
2021/11/16 07:01:19;;;;;;;17.92;13.15;;;;;;;6.28;65.49;95738.41;1675321;82;21034;-59
2021/11/16 07:03:49;;;;;;;18.45;11.85;;;;;;;6.25;65.59;95744.67;1676416;82;21162;-62
2021/11/16 07:06:17;;;;;;;20.00;13.70;;;;;;;6.19;65.75;95736.09;1651392;83;21517;-70
2021/11/16 07:08:47;;;;;;;22.22;16.17;;;;;;;6.17;65.87;95729.48;1654450;83;22239;-76
2021/11/16 07:11:17;;;;;;;15.35;11.33;;;;;;;6.20;65.98;95730.85;1652238;83;21491;-65
2021/11/16 07:14:01;;;;;;;18.00;11.65;;;;;;;6.28;65.81;95732.95;1664216;82;21057;-64
2021/11/16 07:16:56;;;;;;;17.70;11.63;;;;;;;6.23;65.84;95736.89;1686825;82;21023;-68
2021/11/16 07:19:43;;;;;;;21.37;11.48;;;;;;;6.21;65.95;95727.52;1669633;82;21517;-62
2021/11/16 07:22:19;;;;;;;18.35;11.75;;;;;;;6.18;66.17;95733.17;1657999;82;21145;-64
2021/11/16 07:24:53;;;;;;;17.57;12.58;;;;;;;6.12;66.35;95723.07;1677489;81;21146;-69
2021/11/16 07:27:22;;;;;;;14.60;10.08;;;;;;;6.08;66.60;95726.38;1681499;82;21017;-65
2021/11/16 07:29:53;;;;;;;16.90;9.33;;;;;;;6.07;66.66;95724.25;1677640;82;21052;-60
2021/11/16 07:32:27;;;;;;;20.70;9.55;;;;;;;6.10;66.63;95731.65;1676274;82;22280;-67
2021/11/16 07:35:04;;;;;;;19.87;11.55;;;;;;;6.16;66.55;95726.56;1681144;82;21131;-61
2021/11/16 07:37:37;;;;;;;29.50;12.55;;;;;;;6.20;66.49;95727.33;1670301;82;22202;-62
2021/11/16 07:40:12;;;;;;;;;;;;;;;6.23;66.50;95726.53;1680028;82;21370;-65
2021/11/16 07:42:59;;;;;;;28.17;13.28;;;;;;;6.32;66.25;95725.55;1679103;82;20173;-60
2021/11/16 07:45:29;;;;;;;17.95;13.53;;;;;;;6.37;66.25;95723.16;1661492;83;21131;-60
2021/11/16 07:47:58;;;;;;;19.05;13.83;;;;;;;6.48;65.92;95717.67;1677027;82;21153;-65
2021/11/16 07:50:38;;;;;;;24.63;13.13;;;;;;;6.52;65.72;95716.46;1681577;82;21058;-63
2021/11/16 07:53:25;;;;;;;35.17;16.32;;;;;;;6.52;65.67;95710.23;1662143;82;21429;-66
2021/11/16 07:55:56;;;;;;;29.15;15.18;;;;;;;6.55;65.56;95710.19;1693567;82;21011;-69
2021/11/16 07:58:32;;;;;;;36.80;15.70;;;;;;;6.59;65.50;95706.09;1670124;82;21453;-61
2021/11/16 08:01:02;;;;;;;20.50;15.03;;;;;;;6.61;65.30;95705.09;1684064;82;21816;-64
2021/11/16 08:03:32;;;;;;;33.15;14.55;;;;;;;6.64;65.31;95704.30;1652651;83;21097;-69
2021/11/16 08:06:07;;;;;;;18.55;11.10;;;;;;;6.70;65.23;95697.25;1690532;82;21047;-64
2021/11/16 08:11:27;;;;;;;;;;;;;;;;;;;;;
2021/11/16 08:14:12;;;;;;;21.93;11.63;;;;;;;7.04;64.64;95696.86;1676603;82;22520;-66
2021/11/16 08:16:59;;;;;;;28.50;12.90;;;;;;;7.19;64.22;95695.73;1673273;82;20989;-60
2021/11/16 08:19:28;;;;;;;19.67;11.68;;;;;;;7.32;63.61;95698.19;1656162;82;21050;-64
2021/11/16 08:21:56;;;;;;;15.80;12.37;;;;;;;7.38;63.40;95702.65;1686044;82;21033;-62
2021/11/16 08:24:24;;;;;;;12.45;11.15;;;;;;;7.48;63.24;95697.09;1656669;83;21175;-68
2021/11/16 08:26:52;;;;;;;18.35;9.70;;;;;;;7.55;62.87;95695.64;1661665;82;22169;-64
2021/11/16 08:29:28;;;;;;;13.70;9.73;;;;;;;7.67;62.73;95687.55;1683943;82;22226;-62
2021/11/16 08:32:03;;;;;;;15.08;10.03;;;;;;;7.73;62.32;95694.89;1672004;82;21157;-65
2021/11/16 08:34:34;;;;;;;18.32;10.18;;;;;;;7.71;62.24;95698.63;1680266;82;21019;-65
2021/11/16 08:37:03;;;;;;;29.05;11.05;;;;;;;7.77;62.13;95695.66;1674488;82;21089;-65
2021/11/16 08:39:45;;;;;;;14.47;10.28;;;;;;;7.93;61.93;95694.53;1682412;82;21281;-63
2021/11/16 08:42:19;;;;;;;11.00;9.88;;;;;;;8.19;61.40;95685.66;1682998;82;21081;-69
2021/11/16 08:44:59;;;;;;;13.28;10.48;;;;;;;8.41;60.86;95681.47;1665765;82;21094;-58
2021/11/16 08:47:28;;;;;;;14.20;10.58;;;;;;;8.63;60.22;95683.37;1680519;82;21072;-60
2021/11/16 08:49:55;;;;;;;16.25;10.60;;;;;;;8.78;59.71;95680.02;1684483;82;21014;-69
2021/11/16 08:52:25;;;;;;;15.98;10.03;;;;;;;9.01;59.34;95674.58;1671234;82;21868;-63
2021/11/16 08:55:07;;;;;;;12.28;10.23;;;;;;;9.37;58.33;95670.11;1664862;82;21071;-69
2021/11/16 08:57:35;;;;;;;15.93;9.78;;;;;;;9.61;57.21;95674.44;1584675;86;21055;-68
2021/11/16 09:00:16;;;;;;;14.33;9.93;;;;;;;9.60;56.75;95672.89;1639911;84;21027;-63
2021/11/16 09:02:42;;;;;;;13.85;8.60;;;;;;;9.53;56.77;95666.13;1666177;82;21050;-63
2021/11/16 09:05:13;;;;;;;12.80;9.53;;;;;;;9.62;56.77;95660.27;1684452;82;22483;-68
2021/11/16 09:07:52;;;;;;;15.15;10.40;;;;;;;9.88;56.15;95658.64;1690364;82;21243;-63
2021/11/16 09:10:19;;;;;;;13.95;10.55;;;;;;;10.02;55.49;95656.42;1679955;82;21007;-63
2021/11/16 09:12:50;;;;;;;36.28;11.12;;;;;;;10.18;55.48;95653.77;1674404;82;21673;-61
2021/11/16 09:15:34;;;;;;;14.03;9.25;;;;;;;10.45;55.02;95650.30;1656550;83;21072;-60
2021/11/16 09:18:14;;;;;;;11.80;9.13;;;;;;;10.65;54.37;95639.25;1664793;82;21150;-71
2021/11/16 09:20:43;;;;;;;13.40;9.43;;;;;;;11.01;53.45;95640.81;1673732;82;21388;-62
2021/11/16 09:23:12;;;;;;;15.10;10.53;;;;;;;11.33;52.29;95633.35;1661409;82;20995;-62
2021/11/16 09:25:39;;;;;;;17.12;11.45;;;;;;;11.32;52.47;95631.05;1647811;82;21039;-63
2021/11/16 09:28:34;;;;;;;16.15;9.88;;;;;;;11.44;52.20;95627.58;1674707;82;21059;-66
2021/11/16 09:30:53;;;;;;;13.03;9.70;;;;;;;11.63;51.74;95626.73;1663234;82;22275;-63
2021/11/16 09:33:21;;;;;;;14.20;9.35;;;;;;;11.92;51.15;95617.92;1656106;83;21573;-60
2021/11/16 09:35:55;;;;;;;18.67;9.63;;;;;;;12.14;50.66;95614.16;1684922;82;21472;-61
2021/11/16 09:38:52;;;;;;;15.50;9.18;;;;;;;12.30;49.93;95614.08;1680963;82;21084;-64
2021/11/16 09:41:21;;;;;;;16.10;10.28;;;;;;;12.41;49.60;95611.80;1680928;82;21106;-61
2021/11/16 09:43:59;;;;;;;20.82;11.83;;;;;;;12.50;49.12;95611.95;1692791;82;21911;-63
2021/11/16 09:46:26;;;;;;;25.23;11.22;;;;;;;12.72;49.02;95604.59;1690462;81;20920;-69
2021/11/16 09:49:03;;;;;;;24.47;11.43;;;;;;;13.02;48.58;95598.55;1660679;82;20973;-57
2021/11/16 09:51:30;;;;;;;24.95;11.93;;;;;;;13.25;47.86;95587.18;1689460;82;21113;-61
2021/11/16 09:54:04;;;;;;;21.85;13.60;;;;;;;13.30;47.32;95590.76;1693298;82;21031;-66
2021/11/16 09:56:32;;;;;;;20.85;11.40;;;;;;;13.23;47.46;95591.00;1690229;82;21129;-60
2021/11/16 09:58:59;;;;;;;16.50;10.68;;;;;;;13.25;47.12;95586.55;1672409;82;21016;-59
2021/11/16 10:01:35;;;;;;;17.37;12.73;;;;;;;13.28;46.73;95579.38;1684368;82;21038;-67
2021/11/16 10:04:12;;;;;;;19.92;11.15;;;;;;;13.35;46.75;95580.52;1660537;82;21082;-62
2021/11/16 10:06:39;;;;;;;16.07;10.93;;;;;;;13.48;46.80;95579.89;1683509;82;21066;-65
2021/11/16 10:09:06;;;;;;;16.02;10.40;;;;;;;13.68;46.31;95572.11;1687660;82;21728;-62
2021/11/16 10:11:33;;;;;;;13.45;9.38;;;;;;;13.90;45.82;95572.31;1668854;82;21023;-57
2021/11/16 10:14:00;;;;;;;17.07;10.82;;;;;;;14.05;44.97;95559.53;1683360;82;21078;-63
2021/11/16 10:16:27;;;;;;;19.92;11.35;;;;;;;14.12;44.93;95557.10;1671093;82;21049;-74
2021/11/16 10:18:53;;;;;;;15.13;10.05;;;;;;;14.35;44.55;95555.31;1667404;82;22228;-64
2021/11/16 10:21:22;;;;;;;12.33;8.90;;;;;;;14.50;44.05;95547.41;1683212;82;21567;-66
2021/11/16 10:23:50;;;;;;;17.40;10.82;;;;;;;14.56;43.95;95551.13;1640114;83;21050;-59
2021/11/16 10:26:17;;;;;;;16.27;10.95;;;;;;;14.64;44.00;95546.25;1685820;81;21051;-62
2021/11/16 10:28:48;;;;;;;15.63;10.78;;;;;;;14.82;43.63;95542.81;1688978;82;21054;-64
2021/11/16 10:31:16;;;;;;;12.43;9.38;;;;;;;15.09;43.19;95543.69;1683500;82;22195;-67
2021/11/16 10:33:49;;;;;;;12.53;10.03;;;;;;;15.29;42.46;95537.16;1686402;82;21167;-67
2021/11/16 10:36:16;;;;;;;10.23;7.97;;;;;;;15.41;42.27;95532.12;1653989;82;21054;-72
2021/11/16 10:38:46;;;;;;;15.13;12.30;;;;;;;15.96;41.19;95532.94;1668113;82;21407;-69
2021/11/16 10:41:21;;;;;;;18.92;11.08;;;;;;;16.43;41.01;95528.45;1674565;82;20998;-64
2021/11/16 10:43:58;;;;;;;11.38;8.13;;;;;;;16.97;39.93;95521.34;1677647;82;21014;-63
2021/11/16 10:46:30;;;;;;;15.75;9.60;;;;;;;17.28;38.93;95520.44;1685638;82;21993;-70
2021/11/16 10:48:58;;;;;;;12.60;10.20;;;;;;;17.25;38.75;95521.38;1683505;81;21034;-63
2021/11/16 10:51:29;;;;;;;17.87;11.57;;;;;;;17.08;38.69;95515.42;1666718;81;21922;-61
2021/11/16 10:53:56;;;;;;;14.60;9.10;;;;;;;16.99;39.31;95508.52;1687705;81;21580;-62
2021/11/16 10:56:23;;;;;;;17.30;10.38;;;;;;;17.11;39.60;95505.38;1676009;82;21039;-63
2021/11/16 10:58:50;;;;;;;43.02;24.90;;;;;;;17.47;39.10;95501.03;1686838;81;21118;-63
2021/11/16 11:01:24;;;;;;;31.25;15.13;;;;;;;17.95;38.50;95501.14;1683441;82;21006;-66
2021/11/16 11:03:55;;;;;;;45.65;20.72;;;;;;;18.40;38.30;95494.56;1680120;82;21020;-65
2021/11/16 11:06:35;;;;;;;33.60;13.75;;;;;;;18.88;37.29;95487.55;1657825;83;21101;-64
2021/11/16 11:09:08;;;;;;;13.28;9.60;;;;;;;19.28;36.33;95494.05;1676025;82;21023;-64
2021/11/16 11:11:44;;;;;;;21.87;11.57;;;;;;;19.22;36.46;95489.63;1683014;82;21078;-69
2021/11/16 11:14:38;;;;;;;11.75;8.23;;;;;;;19.16;36.42;95489.55;1688848;83;21075;-64
2021/11/16 11:17:10;;;;;;;13.70;9.13;;;;;;;19.23;36.26;95477.97;1667346;83;21108;-65
2021/11/16 11:19:40;;;;;;;19.20;13.03;;;;;;;19.58;35.91;95484.30;1684134;82;21102;-64
2021/11/16 11:24:59;;;;;;;22.65;9.58;;;;;;;21.00;33.89;95474.56;1684910;82;21142;-69
2021/11/16 11:27:36;;;;;;;16.32;8.93;;;;;;;21.60;32.69;95474.19;1687003;83;21430;-75
2021/11/16 11:30:08;;;;;;;24.77;14.07;;;;;;;22.15;32.17;95474.59;1693336;83;21104;-61
2021/11/16 11:32:38;;;;;;;15.18;10.20;;;;;;;22.72;31.00;95468.02;1664114;83;21052;-72
2021/11/16 11:35:14;;;;;;;15.18;10.43;;;;;;;23.26;29.74;95465.73;1684548;83;21156;-73
2021/11/16 11:37:53;;;;;;;13.62;9.45;;;;;;;23.54;29.75;95454.57;1685909;83;21143;-73
2021/11/16 11:40:30;;;;;;;55.03;30.55;;;;;;;24.00;28.98;95451.91;1696079;83;21010;-73
2021/11/16 11:43:20;;;;;;;14.70;9.48;;;;;;;24.35;28.74;95453.39;1688414;83;21187;-72
2021/11/16 11:45:47;;;;;;;12.60;9.03;;;;;;;24.80;28.21;95457.47;1694939;83;21108;-73
2021/11/16 11:48:21;;;;;;;17.57;9.28;;;;;;;24.92;27.77;95445.59;1686173;83;21192;-63
2021/11/16 11:50:58;;;;;;;10.75;7.85;;;;;;;24.99;27.75;95437.23;1680240;83;21145;-69
2021/11/16 11:53:31;;;;;;;11.18;7.97;;;;;;;25.12;27.32;95432.50;1693045;82;21158;-63
2021/11/16 11:56:03;;;;;;;9.00;7.60;;;;;;;25.27;27.03;95433.56;1696159;82;22179;-62